Time;durP1;ratioP1;P1;durP2;ratioP2;P2;SDS_P1;SDS_P2;PMS_P1;PMS_P2;Temp;Humidity;BMP_temperature;BMP_pressure;BME280_temperature;BME280_humidity;BME280_pressure;Samples;Min_cycle;Max_cycle;Signal;HPM_P1;HPM_P2
2021/10/29 00:01:50;;;;;;;4.13;0.60;;;32.70;65.50;;;;;;5083157;28;20024;-75
2021/10/29 00:04:17;;;;;;;0.95;0.73;;;32.70;64.30;;;;;;5084138;28;20035;-77
2021/10/29 00:06:45;;;;;;;1.95;0.77;;;32.90;64.20;;;;;;5080177;28;20482;-76
2021/10/29 00:09:12;;;;;;;4.18;0.60;;;33.20;62.50;;;;;;5080484;28;20035;-74
2021/10/29 00:11:40;;;;;;;2.25;0.50;;;33.30;62.50;;;;;;5079528;28;20036;-77
2021/10/29 00:14:07;;;;;;;3.47;0.65;;;33.40;61.80;;;;;;5082773;28;20037;-76
2021/10/29 00:16:35;;;;;;;1.23;0.70;;;33.30;62.30;;;;;;5061528;28;20035;-76
2021/10/29 00:19:02;;;;;;;0.95;0.85;;;32.90;62.20;;;;;;5075510;28;20032;-77
2021/10/29 00:21:30;;;;;;;1.25;0.52;;;33.00;61.60;;;;;;5081931;28;20547;-74
2021/10/29 00:23:57;;;;;;;3.20;0.60;;;33.20;62.30;;;;;;5091304;28;20032;-73
2021/10/29 00:26:25;;;;;;;1.40;0.70;;;33.50;62.00;;;;;;5090409;28;20080;-73
2021/10/29 00:28:52;;;;;;;3.28;0.40;;;33.50;62.20;;;;;;5082871;28;20067;-77
2021/10/29 00:31:20;;;;;;;2.60;0.60;;;33.60;62.50;;;;;;5089572;28;20065;-77
2021/10/29 00:33:47;;;;;;;0.95;0.50;;;33.80;60.10;;;;;;5090975;28;20779;-74
2021/10/29 00:36:14;;;;;;;1.00;0.60;;;34.30;60.10;;;;;;5088194;28;20020;-78
2021/10/29 00:38:42;;;;;;;1.05;0.60;;;34.20;59.40;;;;;;5087940;28;20034;-74
2021/10/29 00:41:09;;;;;;;2.08;0.68;;;33.80;59.90;;;;;;5088243;28;20107;-77
2021/10/29 00:43:39;;;;;;;1.17;0.43;;;33.80;60.10;;;;;;5085517;28;20048;-72
2021/10/29 00:46:06;;;;;;;2.15;0.75;;;33.80;60.60;;;;;;5086765;28;20020;-72
2021/10/29 00:48:35;;;;;;;2.55;0.50;;;33.20;58.40;;;;;;5086392;28;20089;-78
2021/10/29 00:51:04;;;;;;;2.80;1.08;;;32.80;60.70;;;;;;5082070;28;20054;-75
2021/10/29 00:53:32;;;;;;;1.98;0.50;;;33.20;60.00;;;;;;5086841;28;20030;-74
2021/10/29 00:56:00;;;;;;;0.88;0.68;;;33.40;57.20;;;;;;5089014;28;20370;-73
2021/10/29 00:58:27;;;;;;;5.28;1.25;;;33.40;56.90;;;;;;5075204;28;20071;-72
2021/10/29 01:00:54;;;;;;;3.53;0.60;;;33.60;57.10;;;;;;5081370;28;20424;-72
2021/10/29 01:03:22;;;;;;;2.35;0.40;;;33.40;56.50;;;;;;5091143;28;20463;-75
2021/10/29 01:05:49;;;;;;;0.65;0.40;;;33.20;56.20;;;;;;5084097;28;20043;-72
2021/10/29 01:08:16;;;;;;;2.55;0.50;;;32.90;56.70;;;;;;5087283;28;20069;-75
2021/10/29 01:10:46;;;;;;;3.40;0.60;;;32.70;56.50;;;;;;5089445;28;20020;-75
2021/10/29 01:13:14;;;;;;;2.55;0.63;;;33.10;56.70;;;;;;5072217;28;20481;-74
2021/10/29 01:15:42;;;;;;;1.33;1.02;;;33.50;56.60;;;;;;5079325;28;20111;-75
2021/10/29 01:18:10;;;;;;;1.13;0.50;;;33.70;55.80;;;;;;5087309;28;20348;-71
2021/10/29 01:20:38;;;;;;;2.53;0.77;;;33.80;56.20;;;;;;5083235;28;20040;-73
2021/10/29 01:23:05;;;;;;;2.42;0.80;;;33.80;56.40;;;;;;5078662;28;20020;-72
2021/10/29 01:25:33;;;;;;;1.60;0.60;;;34.00;56.10;;;;;;5089051;28;20036;-74
2021/10/29 01:28:00;;;;;;;1.27;0.80;;;34.50;55.50;;;;;;5085831;28;20044;-75
2021/10/29 01:30:27;;;;;;;3.22;0.93;;;34.70;55.20;;;;;;5090059;28;20364;-73
2021/10/29 01:32:55;;;;;;;1.75;0.70;;;34.80;54.70;;;;;;5087377;28;20478;-76
2021/10/29 01:35:22;;;;;;;3.50;1.08;;;34.30;55.00;;;;;;5086041;28;20039;-77
2021/10/29 01:37:49;;;;;;;2.35;0.90;;;34.20;57.40;;;;;;5079953;28;20028;-75
2021/10/29 01:40:17;;;;;;;1.80;0.60;;;34.20;56.30;;;;;;5080786;28;20039;-75
2021/10/29 01:42:48;;;;;;;2.35;0.60;;;34.20;56.80;;;;;;5077714;28;20026;-72
2021/10/29 01:45:16;;;;;;;1.05;0.80;;;34.20;55.30;;;;;;5078011;28;20467;-73
2021/10/29 01:47:44;;;;;;;2.28;0.60;;;33.80;56.30;;;;;;5081080;28;20467;-75
2021/10/29 01:50:13;;;;;;;1.30;0.63;;;34.00;57.20;;;;;;5086857;28;20371;-77
2021/10/29 01:52:41;;;;;;;2.78;0.75;;;34.60;55.50;;;;;;5081369;28;20062;-77
2021/10/29 01:55:09;;;;;;;2.45;0.60;;;34.30;55.50;;;;;;5072255;28;20028;-74
2021/10/29 01:57:36;;;;;;;3.72;0.77;;;34.10;56.30;;;;;;5078839;28;20028;-75
2021/10/29 02:00:08;;;;;;;1.45;0.40;;;33.90;56.10;;;;;;5080290;28;20036;-74
2021/10/29 02:02:35;;;;;;;2.58;0.70;;;33.10;56.10;;;;;;5076350;28;20475;-75
2021/10/29 02:05:03;;;;;;;4.28;0.73;;;33.00;57.20;;;;;;5083181;28;20032;-75
2021/10/29 02:07:30;;;;;;;0.55;0.50;;;33.20;57.10;;;;;;5085436;28;20032;-73
2021/10/29 02:10:01;;;;;;;1.02;0.57;;;33.20;56.60;;;;;;5087120;28;20522;-72
2021/10/29 02:12:29;;;;;;;3.20;0.80;;;32.90;56.30;;;;;;5076057;28;20107;-74
2021/10/29 02:14:56;;;;;;;2.58;0.75;;;32.80;57.30;;;;;;5074140;28;20023;-70
2021/10/29 02:17:25;;;;;;;1.40;0.70;;;32.80;57.00;;;;;;5080743;28;20043;-72
2021/10/29 02:19:53;;;;;;;1.95;0.50;;;32.60;57.40;;;;;;5072105;28;20028;-72
2021/10/29 02:22:20;;;;;;;4.15;0.73;;;32.30;58.00;;;;;;5065745;28;20067;-70
2021/10/29 02:24:48;;;;;;;4.30;0.70;;;32.20;57.90;;;;;;5082214;28;20094;-72
2021/10/29 02:27:17;;;;;;;6.22;1.67;;;32.20;57.90;;;;;;5082083;28;20441;-71
2021/10/29 02:29:44;;;;;;;3.17;0.93;;;32.40;58.30;;;;;;5089472;28;20111;-69
2021/10/29 02:32:11;;;;;;;2.85;1.10;;;32.70;58.10;;;;;;5079116;28;20044;-71
2021/10/29 02:34:39;;;;;;;3.08;0.70;;;32.70;58.10;;;;;;5084248;28;20062;-70
2021/10/29 02:37:06;;;;;;;2.55;0.70;;;32.80;57.90;;;;;;5086605;28;20024;-73
2021/10/29 02:39:33;;;;;;;3.17;1.00;;;32.80;56.80;;;;;;5084258;28;20429;-73
2021/10/29 02:42:04;;;;;;;2.03;0.77;;;32.90;57.30;;;;;;5088213;28;20375;-75
2021/10/29 02:44:32;;;;;;;3.30;0.50;;;33.10;57.10;;;;;;5084935;28;20131;-70
2021/10/29 02:47:00;;;;;;;2.35;0.55;;;33.10;57.60;;;;;;5084262;28;20065;-72
2021/10/29 02:49:27;;;;;;;2.67;0.75;;;33.30;55.70;;;;;;5074196;28;20094;-71
2021/10/29 02:51:55;;;;;;;2.33;0.80;;;33.60;55.70;;;;;;5068399;28;20059;-74
2021/10/29 02:54:22;;;;;;;3.65;0.50;;;33.10;55.20;;;;;;5066838;28;20129;-72
2021/10/29 02:56:52;;;;;;;7.40;1.05;;;33.10;55.80;;;;;;5057927;28;20035;-70
2021/10/29 02:59:19;;;;;;;2.60;0.60;;;33.00;56.50;;;;;;5068479;28;21639;-72
2021/10/29 03:01:47;;;;;;;1.35;0.80;;;33.00;55.60;;;;;;5071471;28;20029;-72
2021/10/29 03:04:15;;;;;;;4.13;0.60;;;32.70;55.80;;;;;;5068066;28;20032;-71
2021/10/29 03:06:43;;;;;;;4.65;0.60;;;32.40;56.30;;;;;;5069045;28;20724;-72
2021/10/29 03:09:10;;;;;;;6.60;0.93;;;32.10;56.90;;;;;;5067478;28;20028;-73
2021/10/29 03:11:38;;;;;;;4.95;0.90;;;32.30;56.50;;;;;;5073748;28;20028;-71
2021/10/29 03:14:05;;;;;;;2.97;0.80;;;32.40;56.00;;;;;;5069195;28;20031;-70
2021/10/29 03:16:32;;;;;;;3.95;0.85;;;32.60;57.50;;;;;;5074677;28;20016;-77
2021/10/29 03:19:00;;;;;;;2.70;0.65;;;32.90;55.80;;;;;;5076521;28;20031;-73
2021/10/29 03:21:27;;;;;;;4.53;0.90;;;33.00;54.90;;;;;;5069811;28;20108;-78
2021/10/29 03:23:54;;;;;;;6.53;1.45;;;32.80;54.30;;;;;;5069145;28;20159;-74
2021/10/29 03:26:22;;;;;;;5.45;0.70;;;32.50;54.40;;;;;;5075592;28;21228;-72
2021/10/29 03:28:49;;;;;;;2.42;0.90;;;32.20;54.30;;;;;;5070767;28;20066;-73
2021/10/29 03:31:17;;;;;;;7.05;1.17;;;32.10;54.40;;;;;;5069885;28;20035;-73
2021/10/29 03:33:44;;;;;;;5.57;0.60;;;32.40;53.30;;;;;;5067482;28;20491;-78
2021/10/29 03:36:12;;;;;;;4.80;0.63;;;32.30;53.00;;;;;;5068999;28;20470;-73
2021/10/29 03:41:26;;;;;;;5.95;0.82;;;32.20;52.50;;;;;;5071155;28;20159;-71
2021/10/29 03:44:00;;;;;;;13.98;1.42;;;32.50;52.90;;;;;;5067622;28;20043;-70
2021/10/29 03:46:29;;;;;;;10.48;0.80;;;32.90;50.80;;;;;;5068940;28;20028;-73
2021/10/29 03:51:43;;;;;;;3.42;0.57;;;32.80;49.90;;;;;;5065796;28;21536;-73
2021/10/29 03:54:15;;;;;;;3.70;0.75;;;32.80;49.10;;;;;;5075196;28;20085;-72
2021/10/29 03:57:28;;;;;;;3.63;0.55;;;32.50;48.70;;;;;;5079964;28;20021;-70
2021/10/29 03:59:31;;;;;;;6.47;0.82;;;32.60;48.80;;;;;;5063562;28;20048;-74
2021/10/29 04:01:58;;;;;;;10.27;1.73;;;32.50;49.00;;;;;;5070594;28;20479;-71
2021/10/29 04:04:26;;;;;;;3.97;0.90;;;32.30;48.00;;;;;;5066716;28;20117;-73
2021/10/29 04:06:54;;;;;;;11.07;1.05;;;31.90;46.70;;;;;;5069407;28;20441;-70
2021/10/29 04:09:22;;;;;;;3.42;0.50;;;32.00;47.50;;;;;;5067282;28;20882;-71
2021/10/29 04:11:53;;;;;;;4.60;0.88;;;31.70;47.50;;;;;;5068757;28;20032;-71
2021/10/29 04:14:25;;;;;;;4.32;1.13;;;31.50;47.80;;;;;;5067557;28;20475;-70
2021/10/29 04:16:53;;;;;;;3.72;0.68;;;31.70;48.30;;;;;;5079003;28;20025;-78
2021/10/29 04:19:20;;;;;;;8.57;1.33;;;31.80;46.90;;;;;;5078326;28;20051;-70
2021/10/29 04:21:48;;;;;;;18.02;1.58;;;31.70;47.10;;;;;;5086302;28;20028;-70
2021/10/29 04:24:15;;;;;;;7.20;0.50;;;31.70;47.30;;;;;;5073884;28;20036;-74
2021/10/29 04:26:43;;;;;;;10.18;1.00;;;31.70;46.80;;;;;;5089692;28;20020;-71
2021/10/29 04:29:14;;;;;;;5.25;0.50;;;31.70;46.50;;;;;;5094028;28;20062;-75
2021/10/29 04:31:50;;;;;;;12.40;2.45;;;31.80;45.00;;;;;;5087237;28;20036;-77
2021/10/29 04:34:26;;;;;;;10.65;1.35;;;31.70;44.90;;;;;;5081836;28;20523;-73
2021/10/29 04:36:56;;;;;;;6.10;1.25;;;31.70;46.00;;;;;;5072008;28;20020;-72
2021/10/29 04:39:24;;;;;;;6.68;1.10;;;31.70;45.20;;;;;;5083847;28;20077;-73
2021/10/29 04:41:51;;;;;;;3.72;1.63;;;31.40;45.40;;;;;;5070284;28;20222;-71
2021/10/29 04:44:23;;;;;;;10.15;1.40;;;31.60;44.70;;;;;;5066758;28;20036;-71
2021/10/29 04:46:52;;;;;;;13.50;1.05;;;31.30;45.20;;;;;;5067886;28;21951;-70
2021/10/29 04:49:19;;;;;;;5.43;0.70;;;31.30;44.10;;;;;;5065934;28;20647;-72
2021/10/29 04:51:47;;;;;;;8.45;1.38;;;31.10;44.40;;;;;;5067826;28;20028;-77
2021/10/29 04:54:15;;;;;;;5.45;1.13;;;31.10;44.70;;;;;;5051616;28;20090;-79
2021/10/29 04:56:43;;;;;;;7.57;0.70;;;31.20;45.00;;;;;;5067780;28;21916;-75
2021/10/29 04:59:14;;;;;;;11.38;0.70;;;31.20;44.30;;;;;;5074646;28;20378;-75
2021/10/29 05:01:43;;;;;;;8.63;0.93;;;31.30;44.60;;;;;;5071859;28;20031;-73
2021/10/29 05:04:10;;;;;;;5.82;0.45;;;31.20;44.10;;;;;;5068430;28;20039;-72
2021/10/29 05:06:38;;;;;;;8.00;0.40;;;30.80;43.90;;;;;;5068900;28;20031;-70
2021/10/29 05:09:05;;;;;;;9.32;0.57;;;30.80;43.70;;;;;;5067479;28;20149;-74
2021/10/29 05:11:33;;;;;;;9.65;1.85;;;30.60;43.90;;;;;;5068837;28;20035;-74
2021/10/29 05:14:00;;;;;;;7.55;1.00;;;30.60;43.70;;;;;;5066626;28;20028;-71
2021/10/29 05:16:28;;;;;;;8.10;1.08;;;30.70;44.00;;;;;;5072846;28;20055;-72
2021/10/29 05:18:56;;;;;;;6.78;1.13;;;30.40;44.40;;;;;;5068241;28;20044;-70
2021/10/29 05:21:23;;;;;;;7.07;1.10;;;30.30;44.40;;;;;;5067671;28;20048;-73
2021/10/29 05:23:51;;;;;;;7.40;1.30;;;30.40;44.30;;;;;;5085351;28;20364;-76
2021/10/29 05:26:18;;;;;;;6.43;0.80;;;30.30;44.30;;;;;;5081966;28;20017;-72
2021/10/29 05:28:46;;;;;;;6.00;0.50;;;30.30;44.10;;;;;;5080286;28;20047;-78
2021/10/29 05:31:14;;;;;;;5.82;1.05;;;30.10;45.00;;;;;;5072074;28;20187;-71
2021/10/29 05:33:42;;;;;;;5.22;1.33;;;29.90;44.90;;;;;;5067024;28;20511;-73
2021/10/29 05:36:09;;;;;;;4.05;0.85;;;30.10;46.10;;;;;;5069728;28;20136;-74
2021/10/29 05:38:37;;;;;;;6.18;1.13;;;30.30;45.70;;;;;;5085326;28;20364;-76
2021/10/29 05:41:04;;;;;;;5.35;0.60;;;30.60;45.10;;;;;;5076838;28;20028;-74
2021/10/29 05:43:32;;;;;;;6.70;1.27;;;30.70;44.10;;;;;;5083427;28;20020;-74
2021/10/29 05:45:59;;;;;;;15.63;1.20;;;30.50;44.70;;;;;;5083357;28;20483;-76
2021/10/29 05:48:26;;;;;;;6.97;1.27;;;30.30;43.90;;;;;;5074355;28;20463;-73
2021/10/29 05:50:55;;;;;;;6.35;2.20;;;30.20;44.30;;;;;;5069654;28;20032;-74
2021/10/29 05:55:57;;;;;;;3.42;0.43;;;30.10;44.60;;;;;;5079072;28;20070;-76
2021/10/29 05:58:26;;;;;;;7.07;1.17;;;30.10;43.80;;;;;;5083965;28;20024;-74
2021/10/29 06:00:53;;;;;;;5.45;0.40;;;30.10;43.70;;;;;;5074954;28;20028;-77
2021/10/29 06:03:21;;;;;;;3.00;0.40;;;30.00;43.20;;;;;;5078643;28;20028;-76
2021/10/29 06:05:48;;;;;;;9.43;0.95;;;29.90;43.20;;;;;;5083345;28;20069;-74
2021/10/29 06:08:17;;;;;;;4.30;0.73;;;29.90;42.80;;;;;;5078934;28;20027;-77
2021/10/29 06:10:44;;;;;;;3.25;0.30;;;30.00;43.80;;;;;;5089787;28;20082;-77
2021/10/29 06:13:11;;;;;;;10.70;2.20;;;30.00;42.30;;;;;;5077607;28;20042;-73
2021/10/29 06:15:43;;;;;;;9.38;1.15;;;29.80;42.50;;;;;;5073355;28;20016;-76
2021/10/29 06:18:12;;;;;;;3.38;0.85;;;29.80;42.70;;;;;;5071307;28;20032;-74
2021/10/29 06:20:40;;;;;;;6.35;1.35;;;29.80;41.90;;;;;;5069624;28;20044;-76
2021/10/29 06:23:08;;;;;;;3.38;0.28;;;29.70;41.30;;;;;;5088353;28;20024;-74
2021/10/29 06:25:43;;;;;;;4.18;0.70;;;29.50;40.50;;;;;;5082328;28;20028;-75
2021/10/29 06:28:23;;;;;;;7.10;1.27;;;29.30;40.90;;;;;;5088840;28;20479;-75
2021/10/29 06:30:51;;;;;;;2.25;0.43;;;29.40;41.20;;;;;;5089115;28;20024;-75
2021/10/29 06:33:23;;;;;;;4.72;0.80;;;29.30;40.10;;;;;;4969293;28;3065399;-79
2021/10/29 06:35:55;;;;;;;6.45;0.93;;;29.10;39.90;;;;;;5086331;28;20032;-76
2021/10/29 06:38:24;;;;;;;6.38;0.65;;;29.00;40.20;;;;;;5072031;28;20024;-77
2021/10/29 06:40:52;;;;;;;5.25;0.30;;;28.90;40.10;;;;;;5071131;28;20023;-77
2021/10/29 06:43:30;;;;;;;10.10;0.77;;;28.70;40.90;;;;;;5091659;28;20026;-74
2021/10/29 06:46:11;;;;;;;4.82;0.30;;;28.60;39.70;;;;;;5086413;28;20039;-74
2021/10/29 06:59:35;;;;;;;8.40;0.32;;;28.10;41.20;;;;;;5061373;28;20101;-76
2021/10/29 07:40:06;;;;;;;1.08;0.10;;;26.80;42.60;;;;;;5071149;28;20051;-72
2021/10/29 07:45:10;;;;;;;1.73;0.17;;;26.60;42.80;;;;;;5080520;28;20031;-73
2021/10/29 07:47:38;;;;;;;0.68;0.38;;;26.50;43.20;;;;;;5074167;28;20101;-75
2021/10/29 07:50:08;;;;;;;1.85;0.20;;;26.40;43.70;;;;;;5069855;28;20023;-73
2021/10/29 07:52:38;;;;;;;2.08;0.20;;;26.30;43.60;;;;;;5078073;28;20210;-72
2021/10/29 07:55:07;;;;;;;1.58;0.57;;;26.20;43.40;;;;;;5067488;28;21005;-75
2021/10/29 07:57:35;;;;;;;0.55;0.05;;;26.10;43.40;;;;;;5072732;28;20036;-74
2021/10/29 08:00:05;;;;;;;0.63;0.20;;;26.00;43.10;;;;;;5071453;28;20563;-75
2021/10/29 08:02:32;;;;;;;0.55;0.10;;;26.00;43.30;;;;;;5077226;28;20115;-72
2021/10/29 08:05:02;;;;;;;2.35;0.15;;;25.90;43.60;;;;;;5082473;28;20032;-76
2021/10/29 08:07:30;;;;;;;0.13;0.10;;;25.80;44.10;;;;;;5059165;28;20024;-74
2021/10/29 08:10:03;;;;;;;0.75;0.10;;;25.70;43.90;;;;;;5079034;28;20093;-74
2021/10/29 08:12:35;;;;;;;0.20;0.10;;;25.60;45.00;;;;;;5080076;28;20028;-73
2021/10/29 08:15:05;;;;;;;1.77;0.10;;;25.50;45.50;;;;;;5082583;28;20092;-77
2021/10/29 08:17:34;;;;;;;3.70;0.20;;;25.40;44.90;;;;;;5068537;28;20031;-74
2021/10/29 08:20:05;;;;;;;0.10;0.03;;;25.40;44.90;;;;;;5092750;28;20486;-78
2021/10/29 08:22:35;;;;;;;1.55;0.20;;;25.30;45.50;;;;;;5080594;28;20082;-76
2021/10/29 08:25:06;;;;;;;1.55;0.10;;;25.20;46.00;;;;;;5088490;28;20020;-74
2021/10/29 08:27:34;;;;;;;2.78;0.20;;;25.20;45.40;;;;;;5092553;28;20467;-74
2021/10/29 08:30:01;;;;;;;1.30;0.10;;;25.10;45.90;;;;;;5098096;28;20028;-74
2021/10/29 08:32:29;;;;;;;1.63;0.30;;;25.00;46.30;;;;;;5086599;28;20036;-73
2021/10/29 08:34:56;;;;;;;4.28;0.20;;;24.90;47.10;;;;;;5091780;28;20032;-73
2021/10/29 08:37:28;;;;;;;4.03;0.10;;;24.80;46.50;;;;;;5083204;28;20024;-74
2021/10/29 08:39:56;;;;;;;0.25;0.25;;;24.70;46.60;;;;;;5083240;28;20044;-73
2021/10/29 08:42:23;;;;;;;0.73;0.10;;;24.60;46.70;;;;;;5084875;28;20028;-71
2021/10/29 08:44:51;;;;;;;0.57;0.10;;;24.50;46.00;;;;;;5086028;28;20051;-75
2021/10/29 08:47:22;;;;;;;1.42;0.30;;;24.50;45.60;;;;;;5076222;28;20054;-75
2021/10/29 08:49:51;;;;;;;3.28;0.47;;;24.50;45.80;;;;;;5085205;28;20076;-75
2021/10/29 08:52:21;;;;;;;3.38;0.10;;;24.50;45.90;;;;;;5091856;28;20035;-74
2021/10/29 08:54:54;;;;;;;3.10;0.30;;;24.50;46.40;;;;;;5091566;28;20069;-75
2021/10/29 08:57:23;;;;;;;1.35;0.25;;;24.40;45.90;;;;;;5087057;28;20482;-76
2021/10/29 08:59:53;;;;;;;3.15;0.20;;;24.40;46.80;;;;;;5086643;28;20047;-73
2021/10/29 09:02:27;;;;;;;1.92;0.45;;;24.30;46.80;;;;;;5083786;28;20023;-77
2021/10/29 09:16:16;;;;;;;0.00;0.00;;;24.00;47.00;;;;;;5073431;28;20036;-75
2021/10/29 09:33:01;;;;;;;4.68;0.60;;;23.40;48.70;;;;;;5079731;28;20055;-72
2021/10/29 09:35:30;;;;;;;0.93;0.20;;;23.40;48.90;;;;;;5090133;28;20032;-76
2021/10/29 09:38:12;;;;;;;0.32;0.20;;;23.30;48.90;;;;;;5090741;28;20055;-76
2021/10/29 09:41:03;;;;;;;0.52;0.10;;;23.30;49.00;;;;;;5088795;28;20032;-73
2021/10/29 09:43:36;;;;;;;0.85;0.15;;;23.20;49.10;;;;;;5087016;28;20162;-76
2021/10/29 09:46:07;;;;;;;1.85;0.10;;;23.20;49.40;;;;;;5086114;28;20479;-73
2021/10/29 09:48:45;;;;;;;2.28;0.10;;;23.10;49.50;;;;;;5082874;28;20055;-73
2021/10/29 09:51:22;;;;;;;0.00;0.00;;;23.10;49.80;;;;;;5084080;28;20067;-75
2021/10/29 09:54:03;;;;;;;1.17;0.20;;;23.10;50.00;;;;;;5088863;28;20508;-74
2021/10/29 09:59:01;;;;;;;0.30;0.10;;;23.10;50.50;;;;;;5092938;28;20028;-77
2021/10/29 10:01:34;;;;;;;0.47;0.10;;;23.10;49.60;;;;;;5082507;28;20036;-76
2021/10/29 10:04:03;;;;;;;1.48;0.20;;;23.10;49.40;;;;;;5087352;28;20027;-75
2021/10/29 10:06:39;;;;;;;0.40;0.40;;;23.00;49.60;;;;;;5081342;28;20386;-74
2021/10/29 10:09:08;;;;;;;2.25;0.20;;;23.00;49.60;;;;;;5076938;28;20031;-76
2021/10/29 10:11:42;;;;;;;0.00;0.00;;;22.90;49.70;;;;;;5080042;28;20078;-73
2021/10/29 10:14:11;;;;;;;0.30;0.08;;;22.90;49.70;;;;;;5079140;28;21476;-72
2021/10/29 10:16:40;;;;;;;0.32;0.05;;;22.80;49.90;;;;;;5078377;28;20020;-74
2021/10/29 10:19:08;;;;;;;0.30;0.05;;;22.80;50.10;;;;;;5077184;28;20058;-73
2021/10/29 10:21:44;;;;;;;2.00;0.20;;;22.70;50.40;;;;;;5079251;28;20039;-74
2021/10/29 10:24:16;;;;;;;1.13;0.90;;;22.70;50.30;;;;;;5078459;28;20103;-73
2021/10/29 10:29:42;;;;;;;2.88;0.52;;;22.60;50.60;;;;;;5081600;28;20524;-73
2021/10/29 10:40:57;;;;;;;1.08;0.20;;;22.20;51.80;;;;;;5079613;28;20051;-73
2021/10/29 10:46:09;;;;;;;0.05;0.00;;;22.20;52.10;;;;;;5076979;28;20072;-76
2021/10/29 10:54:16;;;;;;;0.10;0.10;;;22.10;52.50;;;;;;5080800;28;20115;-74
2021/10/29 10:59:51;;;;;;;0.98;0.03;;;22.00;52.50;;;;;;5079585;28;20024;-72
2021/10/29 11:11:04;;;;;;;0.85;0.10;;;21.70;53.70;;;;;;5086201;28;20028;-73
2021/10/29 11:13:44;;;;;;;0.60;0.17;;;21.60;53.80;;;;;;5075297;28;20043;-72
2021/10/29 11:16:24;;;;;;;0.80;0.10;;;21.60;54.10;;;;;;5083787;28;20028;-73
2021/10/29 11:19:22;;;;;;;0.00;0.00;;;21.50;54.40;;;;;;5082344;28;20028;-72
2021/10/29 11:21:55;;;;;;;0.03;0.00;;;21.40;54.60;;;;;;5078584;28;20130;-71
2021/10/29 11:24:35;;;;;;;1.75;0.10;;;21.40;54.10;;;;;;5084818;28;20020;-77
2021/10/29 11:27:12;;;;;;;0.68;0.10;;;21.40;54.80;;;;;;5080501;28;20028;-74
2021/10/29 11:30:20;;;;;;;3.30;0.10;;;21.30;54.70;;;;;;5082086;28;20016;-73
2021/10/29 11:32:55;;;;;;;1.08;0.10;;;21.30;54.80;;;;;;5064671;28;20051;-74
2021/10/29 11:35:22;;;;;;;0.32;0.10;;;21.20;55.20;;;;;;5062603;28;20024;-76
2021/10/29 11:37:50;;;;;;;1.63;0.10;;;21.20;54.90;;;;;;5087630;28;20020;-77
2021/10/29 11:40:17;;;;;;;0.85;0.52;;;21.20;54.90;;;;;;5083693;28;20042;-72
2021/10/29 11:42:57;;;;;;;0.50;0.08;;;21.20;55.40;;;;;;5081196;28;20468;-76
2021/10/29 11:45:36;;;;;;;0.20;0.10;;;21.10;55.50;;;;;;5093043;28;20078;-72
2021/10/29 11:48:04;;;;;;;0.82;0.28;;;21.10;56.00;;;;;;5088937;28;20032;-75
2021/10/29 11:50:32;;;;;;;0.20;0.10;;;21.00;56.30;;;;;;5079700;28;20030;-73
2021/10/29 11:53:01;;;;;;;0.20;0.00;;;20.90;56.90;;;;;;5082398;28;20024;-76
2021/10/29 11:55:47;;;;;;;0.80;0.20;;;20.80;57.10;;;;;;5085133;28;20071;-76
2021/10/29 11:58:23;;;;;;;1.00;0.20;;;20.70;57.40;;;;;;5076049;28;20039;-76
2021/10/29 12:09:30;;;;;;;0.52;0.10;;;20.40;58.50;;;;;;5031115;28;20553;-71
2021/10/29 12:12:08;;;;;;;1.40;0.10;;;20.40;58.60;;;;;;5069937;28;20028;-75
2021/10/29 12:14:38;;;;;;;0.05;0.00;;;20.40;58.80;;;;;;5076679;28;20032;-76
2021/10/29 12:17:20;;;;;;;0.17;0.10;;;20.40;58.90;;;;;;5055691;28;20121;-74
2021/10/29 12:19:51;;;;;;;0.25;0.13;;;20.30;58.90;;;;;;5067267;28;20041;-71
2021/10/29 12:25:00;;;;;;;2.22;0.20;;;20.30;58.80;;;;;;5068684;28;20390;-76
2021/10/29 12:27:35;;;;;;;0.03;0.00;;;20.30;59.10;;;;;;5078404;28;20016;-75
2021/10/29 13:01:53;;;;;;;1.83;0.57;;;19.60;63.10;;;;;;5071017;28;20119;-75
2021/10/29 13:04:19;;;;;;;0.88;0.40;;;19.50;63.40;;;;;;5071508;28;20377;-74
2021/10/29 13:06:50;;;;;;;0.00;0.00;;;19.40;63.50;;;;;;5079341;28;20088;-75
2021/10/29 13:09:21;;;;;;;0.10;0.10;;;19.40;63.70;;;;;;5075565;28;20541;-77
2021/10/29 13:11:57;;;;;;;0.38;0.20;;;19.40;64.20;;;;;;5079910;28;20066;-79
2021/10/29 13:14:51;;;;;;;;;;;19.30;63.90;;;;;;5075802;28;20032;-77
2021/10/29 13:17:23;;;;;;;0.30;0.10;;;19.30;64.30;;;;;;5067765;28;19916;-74
2021/10/29 13:20:07;;;;;;;1.25;0.10;;;19.20;65.00;;;;;;5066051;28;20502;-78
2021/10/29 13:28:20;;;;;;;0.43;0.10;;;19.00;65.40;;;;;;5035638;28;20105;-72
2021/10/29 13:58:05;;;;;;;1.17;0.50;;;18.40;69.00;;;;;;5079785;28;19952;-76
2021/10/29 14:00:51;;;;;;;1.50;0.28;;;18.30;68.70;;;;;;5079950;28;20475;-76
2021/10/29 14:24:21;;;;;;;0.30;0.25;;;18.40;66.70;;;;;;5078217;28;20071;-77
2021/10/29 14:28:12;;;;;;;0.15;0.10;;;18.50;66.40;;;;;;5069059;28;20047;-75
2021/10/29 14:30:46;;;;;;;0.93;0.05;;;18.50;66.20;;;;;;5061730;28;20028;-77
2021/10/29 14:33:20;;;;;;;0.28;0.10;;;18.40;66.20;;;;;;5079539;28;20048;-75
2021/10/29 14:35:51;;;;;;;0.08;0.05;;;18.40;66.20;;;;;;5090763;28;20025;-78
2021/10/29 14:41:11;;;;;;;0.22;0.10;;;18.40;66.60;;;;;;5088356;28;20051;-79
2021/10/29 14:46:21;;;;;;;1.75;0.30;;;18.30;66.80;;;;;;5081172;28;20041;-81
2021/10/29 14:51:46;;;;;;;0.50;0.10;;;18.20;67.20;;;;;;5079023;28;20037;-76
2021/10/29 15:03:00;;;;;;;0.10;0.10;;;18.00;67.80;;;;;;5091401;28;20027;-78
2021/10/29 15:05:38;;;;;;;0.40;0.40;;;18.00;68.10;;;;;;5076742;28;20031;-75
2021/10/29 15:17:06;;;;;;;0.10;0.10;;;17.70;68.80;;;;;;5085040;28;20275;-75
2021/10/29 15:30:15;;;;;;;0.10;0.10;;;17.30;69.90;;;;;;5086072;28;20898;-74
2021/10/29 15:44:04;;;;;;;0.00;0.00;;;17.00;70.90;;;;;;5084671;28;20082;-76
2021/10/29 15:51:59;;;;;;;0.43;0.10;;;16.80;71.30;;;;;;5089373;28;20032;-74
2021/10/29 15:54:26;;;;;;;4.15;0.10;;;16.70;71.30;;;;;;5089899;28;20031;-75
2021/10/29 15:56:57;;;;;;;0.00;0.00;;;16.70;71.00;;;;;;5066912;28;20020;-75
2021/10/29 15:59:33;;;;;;;0.20;0.10;;;16.60;71.00;;;;;;5078123;28;20030;-76
2021/10/29 16:18:14;;;;;;;0.73;0.73;;;16.40;71.40;;;;;;5083965;28;20043;-78
2021/10/29 16:20:42;;;;;;;0.10;0.10;;;16.30;71.80;;;;;;5081437;28;20303;-79
2021/10/29 16:23:11;;;;;;;0.32;0.10;;;16.30;72.00;;;;;;5083325;28;20021;-75
2021/10/29 16:25:55;;;;;;;1.38;0.10;;;16.20;72.00;;;;;;5086832;28;20438;-75
2021/10/29 16:28:28;;;;;;;1.15;0.10;;;16.20;72.10;;;;;;5077304;28;20465;-77
2021/10/29 16:30:56;;;;;;;0.08;0.08;;;16.10;72.30;;;;;;5083283;28;20020;-72
2021/10/29 16:33:25;;;;;;;3.55;0.13;;;16.10;72.30;;;;;;5080054;28;20138;-76
2021/10/29 16:35:52;;;;;;;0.60;0.10;;;16.10;72.60;;;;;;5086727;28;20140;-75
2021/10/29 16:38:20;;;;;;;0.28;0.20;;;16.00;72.70;;;;;;5085704;28;20527;-75
2021/10/29 16:40:47;;;;;;;0.30;0.22;;;16.00;72.80;;;;;;5092629;28;20475;-77
2021/10/29 16:43:15;;;;;;;0.25;0.25;;;15.90;73.00;;;;;;5085199;28;20049;-76
2021/10/29 16:45:47;;;;;;;0.10;0.10;;;15.90;73.00;;;;;;5090399;28;20554;-75
2021/10/29 16:48:20;;;;;;;0.63;0.20;;;15.90;73.00;;;;;;5084908;28;20088;-76
2021/10/29 16:50:48;;;;;;;0.30;0.10;;;15.90;73.10;;;;;;5085161;28;20081;-77
2021/10/29 16:53:16;;;;;;;0.30;0.13;;;15.80;73.30;;;;;;5066812;28;20476;-77
2021/10/29 16:55:44;;;;;;;0.25;0.10;;;15.80;73.60;;;;;;5081657;28;20441;-76
2021/10/29 16:58:12;;;;;;;0.32;0.10;;;15.70;73.70;;;;;;5091703;28;20028;-77
2021/10/29 17:00:44;;;;;;;0.20;0.13;;;15.70;73.90;;;;;;5081465;28;20040;-77
2021/10/29 17:03:14;;;;;;;0.10;0.10;;;15.70;74.20;;;;;;5082825;28;20021;-75
2021/10/29 17:05:42;;;;;;;0.10;0.10;;;15.70;74.30;;;;;;5080179;28;20136;-75
2021/10/29 17:08:10;;;;;;;0.08;0.08;;;15.60;74.20;;;;;;5084839;28;20024;-77
2021/10/29 17:10:37;;;;;;;0.10;0.10;;;15.50;74.40;;;;;;5076299;28;20551;-76
2021/10/29 17:13:05;;;;;;;0.63;0.10;;;15.50;74.60;;;;;;5065293;28;20032;-77
2021/10/29 17:15:34;;;;;;;0.40;0.20;;;15.50;74.70;;;;;;5079804;28;20064;-76
2021/10/29 17:18:03;;;;;;;0.20;0.20;;;15.50;74.90;;;;;;5064210;28;20506;-77
2021/10/29 17:20:32;;;;;;;0.75;0.10;;;15.50;75.10;;;;;;5076750;28;20188;-76
2021/10/29 17:23:00;;;;;;;1.20;0.15;;;15.40;75.40;;;;;;5080190;28;20012;-75
2021/10/29 17:25:28;;;;;;;0.40;0.10;;;15.40;75.60;;;;;;5084167;28;20038;-75
2021/10/29 17:27:55;;;;;;;1.85;0.20;;;15.30;75.60;;;;;;5087938;28;20032;-77
2021/10/29 17:30:23;;;;;;;0.08;0.00;;;15.30;75.90;;;;;;5089172;28;20403;-76
2021/10/29 17:32:51;;;;;;;0.20;0.10;;;15.30;76.20;;;;;;5077217;28;20044;-75
2021/10/29 17:35:20;;;;;;;1.00;0.10;;;15.30;76.60;;;;;;5079856;28;20029;-76
2021/10/29 17:37:48;;;;;;;0.00;0.00;;;15.30;76.60;;;;;;5083181;28;20112;-77
2021/10/29 17:40:16;;;;;;;1.75;0.10;;;15.20;77.00;;;;;;5076615;28;20063;-74
2021/10/29 17:42:44;;;;;;;0.40;0.20;;;15.20;77.40;;;;;;5089793;28;20020;-72
2021/10/29 17:45:14;;;;;;;2.15;0.20;;;15.10;77.60;;;;;;5076476;28;20024;-74
2021/10/29 17:47:42;;;;;;;0.35;0.20;;;15.10;77.80;;;;;;5090108;28;20032;-78